world map with JSY marked

JSY - Airport

This information may not be accurate or current and is not valid for navigation or flight planning. No warranty of fitness for any purpose is made or implied.

flag of Greece

Donate via PayPal

Additional information is available on the NEW Great Circle Mapper

Location
City:  Syros Island, Notío Aigaío (Southern Aegean), Greece
ICAO / IATA:LGSO / JSY

Details
Type:Airport (Aerodrome, Airfield)
Latitude:37°25'22"N (37.422792)
Longitude:24°57'03"E (24.950936)
Datum:WGS 1984
Elevation:236 ft (72 m)
Runways:1
Longest:3542 × 98 ft (1080 × 30 m)

Time
Timezone:UTC+2 (DST+5)
Local Time:

Weather
METAR:LGSO  191450Z AUTO VRB03KT //// // ////// 18/15 Q1014 RE//

Related Locations
Nearby:
Farthest:TUB: 11409 mi / 18361 km
Tubuai, Tubuai Islands, Austral Islands, PF

Find:

   beyond  
but within

Other Information
Maps:
Sources:

  


 


Great Circle Mapper   Great Circle Mapper
Great Circle Mapper FAQ   Great Circle Mapper FAQ
  Karl's Home Page
KLS²   KLS² Home
   GC on Facebook
Airlines of the World   Airlines of the World
Donate via PayPal


Copyright © 2004-2018, Karl L. Swartz. All rights reserved.
All trademarks mentioned herein belong to their respective owners.

Please see credits for attribution and copyright information.

Karl Swartz <karl@kls2.com>
  Powered by FreeBSD
Valid HTML 4.01!
Labeled with ICRA
hCard Microformat
Geo Microformat